Time;durP1;ratioP1;P1;durP2;ratioP2;P2;SDS_P1;SDS_P2;PMS_P1;PMS_P2;Temp;Humidity;BMP_temperature;BMP_pressure;BME280_temperature;BME280_humidity;BME280_pressure;Samples;Min_cycle;Max_cycle;Signal;HPM_P1;HPM_P2
2024/02/11 00:01:24;;;;;;;;;;;;;;;1.89;100.00;99667.77;108315;1251;72476;-64
2024/02/11 00:04:04;;;;;;;;;;;;;;;1.90;100.00;99674.23;108385;1251;70574;-64
2024/02/11 00:06:33;;;;;;;;;;;;;;;1.92;100.00;99676.65;108331;1251;61352;-64
2024/02/11 00:09:08;;;;;;;;;;;;;;;1.92;100.00;99676.16;108528;1251;61092;-64
2024/02/11 00:11:35;;;;;;;;;;;;;;;1.94;100.00;99682.36;108393;1251;74418;-66
2024/02/11 00:14:04;;;;;;;;;;;;;;;1.96;100.00;99678.45;108405;1251;72716;-64
2024/02/11 00:16:31;;;;;;;;;;;;;;;1.97;100.00;99674.58;108359;1251;71389;-64
2024/02/11 00:18:58;;;;;;;;;;;;;;;1.98;100.00;99682.12;108435;1251;61875;-64
2024/02/11 00:21:25;;;;;;;;;;;;;;;1.96;100.00;99678.45;108328;1251;61062;-64
2024/02/11 00:23:52;;;;;;;;;;;;;;;1.95;100.00;99671.42;108451;1251;74791;-65
2024/02/11 00:26:19;;;;;;;;;;;;;;;1.94;100.00;99669.28;108370;1257;72757;-64
2024/02/11 00:28:46;;;;;;;;;;;;;;;1.92;100.00;99664.17;108432;1251;73956;-64
2024/02/11 00:31:13;;;;;;;;;;;;;;;1.92;100.00;99665.21;108550;1251;61132;-64
2024/02/11 00:33:39;;;;;;;;;;;;;;;1.94;100.00;99663.54;108458;1251;59853;-64
2024/02/11 00:36:07;;;;;;;;;;;;;;;1.95;100.00;99668.67;108373;1256;73394;-64
2024/02/11 00:38:35;;;;;;;;;;;;;;;1.96;100.00;99666.90;108368;1253;72727;-64
2024/02/11 00:41:03;;;;;;;;;;;;;;;1.95;100.00;99655.58;108420;1256;72617;-64
2024/02/11 00:43:31;;;;;;;;;;;;;;;1.95;100.00;99651.08;108408;1251;61069;-64
2024/02/11 00:46:01;;;;;;;;;;;;;;;1.95;100.00;99657.98;108381;1251;60401;-65
2024/02/11 00:48:28;;;;;;;;;;;;;;;1.95;100.00;99660.94;108374;1251;75257;-64
2024/02/11 00:50:55;;;;;;;;;;;;;;;1.97;100.00;99664.34;108362;1251;71542;-65
2024/02/11 00:53:25;;;;;;;;;;;;;;;1.99;100.00;99668.56;108315;1255;72621;-64
2024/02/11 00:55:53;;;;;;;;;;;;;;;2.00;100.00;99658.78;108552;1251;60083;-64
2024/02/11 00:58:20;;;;;;;;;;;;;;;1.99;100.00;99653.25;108382;1251;60961;-65
2024/02/11 01:00:47;;;;;;;;;;;;;;;1.99;100.00;99656.34;108273;1251;74535;-64
2024/02/11 01:03:14;;;;;;;;;;;;;;;1.98;100.00;99656.48;108410;1251;71666;-64
2024/02/11 01:05:44;;;;;;;;;;;;;;;1.99;100.00;99662.30;108371;1251;71748;-64
2024/02/11 01:08:11;;;;;;;;;;;;;;;2.03;100.00;99664.98;108512;1255;61119;-64
2024/02/11 01:10:38;;;;;;;;;;;;;;;2.05;100.00;99671.15;108335;1251;61125;-63
2024/02/11 01:13:06;;;;;;;;;;;;;;;2.05;100.00;99666.41;108397;1251;74633;-63
2024/02/11 01:15:35;;;;;;;;;;;;;;;2.06;100.00;99673.13;108417;1251;71599;-63
2024/02/11 01:18:02;;;;;;;;;;;;;;;2.09;100.00;99676.27;108411;1251;72456;-63
2024/02/11 01:20:30;;;;;;;;;;;;;;;2.09;100.00;99673.16;108485;1251;61192;-63
2024/02/11 01:22:57;;;;;;;;;;;;;;;2.11;100.00;99672.95;108530;1251;61362;-63
2024/02/11 01:25:25;;;;;;;;;;;;;;;2.17;100.00;99677.63;108630;1251;74680;-63
2024/02/11 01:27:52;;;;;;;;;;;;;;;2.20;100.00;99682.67;108431;1251;72603;-63
2024/02/11 01:30:20;;;;;;;;;;;;;;;2.25;100.00;99687.28;108400;1251;72495;-64
2024/02/11 01:32:48;;;;;;;;;;;;;;;2.28;100.00;99687.61;108254;1251;61237;-64
2024/02/11 01:35:16;;;;;;;;;;;;;;;2.27;100.00;99686.23;108384;1254;61246;-63
2024/02/11 01:37:43;;;;;;;;;;;;;;;2.25;100.00;99681.48;108404;1256;73742;-63
2024/02/11 01:40:18;;;;;;;;;;;;;;;2.20;100.00;99674.87;108432;1253;71359;-64
2024/02/11 01:42:46;;;;;;;;;;;;;;;2.16;100.00;99678.60;108456;1251;72542;-65
2024/02/11 01:45:14;;;;;;;;;;;;;;;2.12;100.00;99671.76;108411;1251;61225;-64
2024/02/11 01:47:44;;;;;;;;;;;;;;;2.08;100.00;99665.66;108429;1251;61109;-65
2024/02/11 01:50:16;;;;;;;;;;;;;;;2.07;100.00;99665.79;108396;1251;74628;-64
2024/02/11 01:52:43;;;;;;;;;;;;;;;2.05;100.00;99660.58;108305;1254;72500;-63
2024/02/11 01:55:10;;;;;;;;;;;;;;;2.02;100.00;99660.50;108364;1251;73431;-64
2024/02/11 01:57:37;;;;;;;;;;;;;;;2.01;100.00;99671.54;108314;1252;61243;-65
2024/02/11 02:00:04;;;;;;;;;;;;;;;2.01;100.00;99675.44;108385;1252;61082;-64
2024/02/11 02:02:32;;;;;;;;;;;;;;;2.01;100.00;99669.69;108386;1251;73449;-64
2024/02/11 02:04:58;;;;;;;;;;;;;;;1.99;100.00;99665.94;108404;1251;73393;-63
2024/02/11 02:07:25;;;;;;;;;;;;;;;1.98;100.00;99667.60;108376;1251;72555;-64
2024/02/11 02:09:53;;;;;;;;;;;;;;;1.97;100.00;99672.56;108524;1251;61249;-63
2024/02/11 02:12:21;;;;;;;;;;;;;;;1.99;100.00;99676.35;108443;1251;59929;-63
2024/02/11 02:14:48;;;;;;;;;;;;;;;2.02;100.00;99682.87;108366;1251;74642;-63
2024/02/11 02:17:15;;;;;;;;;;;;;;;2.07;100.00;99680.21;108312;1251;72713;-63
2024/02/11 02:19:42;;;;;;;;;;;;;;;2.08;100.00;99683.00;108430;1251;73300;-63
2024/02/11 02:22:08;;;;;;;;;;;;;;;2.09;100.00;99679.85;108458;1251;61327;-63
2024/02/11 02:24:35;;;;;;;;;;;;;;;2.09;100.00;99690.48;108412;1251;61884;-63
2024/02/11 02:27:06;;;;;;;;;;;;;;;2.12;100.00;99694.14;108382;1251;75425;-63
2024/02/11 02:29:33;;;;;;;;;;;;;;;2.14;100.00;99684.98;108272;1251;71770;-63
2024/02/11 02:32:00;;;;;;;;;;;;;;;2.14;100.00;99681.50;108327;1251;72104;-63
2024/02/11 02:34:28;;;;;;;;;;;;;;;2.10;100.00;99675.92;108418;1251;61232;-63
2024/02/11 02:36:55;;;;;;;;;;;;;;;2.07;100.00;99677.17;108395;1251;61189;-63
2024/02/11 02:39:23;;;;;;;;;;;;;;;2.05;100.00;99673.30;108320;1251;75188;-63
2024/02/11 02:41:50;;;;;;;;;;;;;;;2.03;100.00;99669.35;108376;1251;71404;-63
2024/02/11 02:44:18;;;;;;;;;;;;;;;2.03;100.00;99673.73;108472;1251;72607;-63
2024/02/11 02:46:45;;;;;;;;;;;;;;;2.04;100.00;99674.86;108373;1251;61249;-63
2024/02/11 02:49:12;;;;;;;;;;;;;;;2.03;100.00;99668.14;108321;1251;61205;-63
2024/02/11 02:51:42;;;;;;;;;;;;;;;1.91;100.00;99660.87;108316;1251;73407;-63
2024/02/11 02:54:14;;;;;;;;;;;;;;;1.81;100.00;99662.64;108341;1251;73090;-62
2024/02/11 02:56:42;;;;;;;;;;;;;;;1.94;100.00;99661.06;108371;1251;71952;-64
2024/02/11 02:59:08;;;;;;;;;;;;;;;1.95;100.00;99659.09;108351;1251;61190;-65
2024/02/11 03:01:38;;;;;;;;;;;;;;;1.96;100.00;99665.21;108367;1253;61126;-64
2024/02/11 03:04:05;;;;;;;;;;;;;;;1.96;100.00;99660.54;108381;1254;74674;-64
2024/02/11 03:06:35;;;;;;;;;;;;;;;1.95;100.00;99660.14;108432;1252;72441;-64
2024/02/11 03:09:03;;;;;;;;;;;;;;;1.95;100.00;99667.30;108433;1251;72835;-64
2024/02/11 03:11:31;;;;;;;;;;;;;;;1.93;100.00;99661.67;108317;1251;60716;-64
2024/02/11 03:13:58;;;;;;;;;;;;;;;1.94;100.00;99663.81;108352;1251;61082;-63
2024/02/11 03:16:24;;;;;;;;;;;;;;;1.94;100.00;99663.86;108378;1251;73116;-63
2024/02/11 03:18:52;;;;;;;;;;;;;;;1.95;100.00;99666.48;108356;1251;70395;-63
2024/02/11 03:21:20;;;;;;;;;;;;;;;1.95;100.00;99668.98;108400;1251;70773;-63
2024/02/11 03:23:47;;;;;;;;;;;;;;;1.96;100.00;99663.06;108316;1251;61294;-63
2024/02/11 03:26:14;;;;;;;;;;;;;;;1.96;100.00;99660.80;108341;1256;61090;-63
2024/02/11 03:28:41;;;;;;;;;;;;;;;1.97;100.00;99661.55;108444;1251;73006;-63
2024/02/11 03:31:07;;;;;;;;;;;;;;;1.97;100.00;99665.70;108645;1251;71400;-63
2024/02/11 03:33:34;;;;;;;;;;;;;;;1.98;100.00;99674.91;108418;1256;71436;-63
2024/02/11 03:36:02;;;;;;;;;;;;;;;1.99;100.00;99673.36;108403;1251;61189;-63
2024/02/11 03:38:29;;;;;;;;;;;;;;;1.99;100.00;99675.78;108473;1251;59498;-63
2024/02/11 03:40:56;;;;;;;;;;;;;;;1.98;100.00;99677.86;108413;1251;75309;-63
2024/02/11 03:43:23;;;;;;;;;;;;;;;1.97;100.00;99677.42;108447;1251;72708;-63
2024/02/11 03:45:49;;;;;;;;;;;;;;;1.98;100.00;99681.84;108368;1251;61317;-63
2024/02/11 03:48:18;;;;;;;;;;;;;;;2.00;100.00;99683.17;108373;1251;61115;-64
2024/02/11 03:50:48;;;;;;;;;;;;;;;2.00;100.00;99677.44;108431;1251;61253;-64
2024/02/11 03:53:16;;;;;;;;;;;;;;;2.00;100.00;99669.32;108369;1251;73301;-64
2024/02/11 03:55:43;;;;;;;;;;;;;;;1.99;100.00;99665.41;108415;1251;72523;-63
2024/02/11 03:58:10;;;;;;;;;;;;;;;2.00;100.00;99664.42;108309;1251;72399;-63
2024/02/11 04:00:37;;;;;;;;;;;;;;;1.99;100.00;99664.84;108341;1251;61080;-65
2024/02/11 04:03:04;;;;;;;;;;;;;;;1.97;100.00;99666.72;108350;1251;61090;-63
2024/02/11 04:05:32;;;;;;;;;;;;;;;1.98;100.00;99669.10;108399;1251;73383;-63
2024/02/11 04:08:01;;;;;;;;;;;;;;;1.97;100.00;99672.92;108411;1251;73075;-63
2024/02/11 04:10:28;;;;;;;;;;;;;;;1.98;100.00;99674.34;108417;1251;71387;-64
2024/02/11 04:12:58;;;;;;;;;;;;;;;2.00;100.00;99668.43;108354;1251;61175;-64
2024/02/11 04:15:27;;;;;;;;;;;;;;;2.00;100.00;99665.59;108562;1255;61135;-64
2024/02/11 04:17:56;;;;;;;;;;;;;;;2.00;100.00;99667.49;108387;1251;74315;-65
2024/02/11 04:20:29;;;;;;;;;;;;;;;1.99;100.00;99662.88;108412;1251;71202;-64
2024/02/11 04:22:58;;;;;;;;;;;;;;;2.00;100.00;99660.05;108418;1251;72425;-64
2024/02/11 04:25:26;;;;;;;;;;;;;;;2.00;100.00;99659.02;108328;1251;61073;-64
2024/02/11 04:27:52;;;;;;;;;;;;;;;2.02;100.00;99658.20;108424;1251;60978;-65
2024/02/11 04:30:21;;;;;;;;;;;;;;;2.02;100.00;99655.80;108481;1251;75198;-64
2024/02/11 04:32:48;;;;;;;;;;;;;;;2.03;100.00;99657.08;108306;1256;73016;-64
2024/02/11 04:35:15;;;;;;;;;;;;;;;2.04;100.00;99661.41;108389;1251;73093;-64
2024/02/11 04:37:49;;;;;;;;;;;;;;;2.02;100.00;99657.59;108398;1251;61149;-65
2024/02/11 04:40:16;;;;;;;;;;;;;;;2.00;100.00;99663.96;108372;1251;60001;-65
2024/02/11 04:42:43;;;;;;;;;;;;;;;2.00;100.00;99666.84;108549;1251;75053;-64
2024/02/11 04:45:15;;;;;;;;;;;;;;;2.01;100.00;99671.74;108355;1251;71136;-65
2024/02/11 04:47:46;;;;;;;;;;;;;;;2.02;100.00;99678.77;108407;1251;72365;-65
2024/02/11 04:50:16;;;;;;;;;;;;;;;2.03;100.00;99682.69;108699;1251;60299;-64
2024/02/11 04:52:48;;;;;;;;;;;;;;;2.06;100.00;99684.52;108246;1251;60413;-64
2024/02/11 04:55:15;;;;;;;;;;;;;;;2.08;100.00;99678.45;108468;1251;73266;-67
2024/02/11 04:57:42;;;;;;;;;;;;;;;2.07;100.00;99678.27;108479;1251;73309;-64
2024/02/11 05:00:10;;;;;;;;;;;;;;;2.07;100.00;99677.90;108624;1251;71147;-66
2024/02/11 05:02:39;;;;;;;;;;;;;;;2.07;100.00;99679.00;108357;1251;61789;-65
2024/02/11 05:05:07;;;;;;;;;;;;;;;2.05;100.00;99683.70;108455;1251;60479;-64
2024/02/11 05:07:34;;;;;;;;;;;;;;;2.03;100.00;99682.36;108342;1251;73404;-64
2024/02/11 05:10:01;;;;;;;;;;;;;;;2.01;100.00;99677.23;108358;1251;72380;-64
2024/02/11 05:12:30;;;;;;;;;;;;;;;2.02;100.00;99682.34;108309;1256;72187;-66
2024/02/11 05:14:57;;;;;;;;;;;;;;;2.02;100.00;99683.52;108355;1251;61823;-66
2024/02/11 05:17:25;;;;;;;;;;;;;;;2.02;100.00;99683.14;108398;1251;61051;-66
2024/02/11 05:19:52;;;;;;;;;;;;;;;2.01;100.00;99685.28;108410;1251;74410;-65
2024/02/11 05:22:25;;;;;;;;;;;;;;;2.00;100.00;99692.71;108388;1251;73242;-65
2024/02/11 05:24:52;;;;;;;;;;;;;;;1.98;100.00;99697.73;108531;1251;71413;-65
2024/02/11 05:27:21;;;;;;;;;;;;;;;1.98;100.00;99700.10;108395;1251;61230;-65
2024/02/11 05:29:50;;;;;;;;;;;;;;;1.98;100.00;99691.23;108451;1251;61154;-65
2024/02/11 05:32:17;;;;;;;;;;;;;;;1.98;100.00;99696.83;108410;1251;74493;-65
2024/02/11 05:34:44;;;;;;;;;;;;;;;1.99;100.00;99698.11;108493;1251;70788;-65
2024/02/11 05:37:12;;;;;;;;;;;;;;;2.01;100.00;99706.52;108419;1251;72689;-65
2024/02/11 05:39:42;;;;;;;;;;;;;;;2.03;100.00;99708.39;108428;1251;61088;-65
2024/02/11 05:42:11;;;;;;;;;;;;;;;2.02;100.00;99704.38;108335;1253;60378;-66
2024/02/11 05:44:38;;;;;;;;;;;;;;;2.04;100.00;99705.53;108500;1251;75920;-66
2024/02/11 05:47:06;;;;;;;;;;;;;;;2.06;100.00;99705.59;108354;1251;73543;-66
2024/02/11 05:49:33;;;;;;;;;;;;;;;2.07;100.00;99702.02;108357;1251;71766;-67
2024/02/11 05:52:00;;;;;;;;;;;;;;;2.08;100.00;99702.58;108284;1251;61252;-67
2024/02/11 05:54:29;;;;;;;;;;;;;;;2.08;100.00;99703.18;108901;1251;59778;-67
2024/02/11 05:56:55;;;;;;;;;;;;;;;2.09;100.00;99706.19;108632;1254;73072;-66
2024/02/11 05:59:22;;;;;;;;;;;;;;;2.11;100.00;99707.20;108330;1251;73358;-66
2024/02/11 06:01:49;;;;;;;;;;;;;;;2.12;100.00;99703.17;108454;1251;72646;-67
2024/02/11 06:04:16;;;;;;;;;;;;;;;2.14;100.00;99705.90;108307;1251;61221;-67
2024/02/11 06:06:43;;;;;;;;;;;;;;;2.15;100.00;99704.35;108419;1251;59310;-66
2024/02/11 06:09:13;;;;;;;;;;;;;;;2.17;100.00;99703.22;108388;1251;73616;-67
2024/02/11 06:11:40;;;;;;;;;;;;;;;2.18;100.00;99704.64;108475;1251;72426;-68
2024/02/11 06:14:07;;;;;;;;;;;;;;;2.19;100.00;99702.08;108367;1251;71483;-67
2024/02/11 06:16:34;;;;;;;;;;;;;;;2.18;100.00;99702.33;108274;1251;61348;-67
2024/02/11 06:19:03;;;;;;;;;;;;;;;2.19;100.00;99691.81;108285;1251;61221;-68
2024/02/11 06:21:30;;;;;;;;;;;;;;;2.21;100.00;99696.38;108397;1251;75729;-67
2024/02/11 06:23:57;;;;;;;;;;;;;;;2.22;100.00;99693.40;108382;1251;71302;-68
2024/02/11 06:26:24;;;;;;;;;;;;;;;2.25;100.00;99688.90;108336;1251;73036;-68
2024/02/11 06:28:53;;;;;;;;;;;;;;;2.26;100.00;99679.28;108366;1251;61186;-68
2024/02/11 06:31:20;;;;;;;;;;;;;;;2.29;100.00;99676.40;108368;1251;61336;-67
2024/02/11 06:33:48;;;;;;;;;;;;;;;2.32;100.00;99674.61;108407;1251;73575;-67
2024/02/11 06:36:16;;;;;;;;;;;;;;;2.38;100.00;99669.10;108433;1251;70406;-68
2024/02/11 06:38:44;;;;;;;;;;;;;;;2.41;100.00;99666.39;108387;1253;72461;-68
2024/02/11 06:41:11;;;;;;;;;;;;;;;2.42;100.00;99663.04;108349;1251;61147;-68
2024/02/11 06:43:40;;;;;;;;;;;;;;;2.43;100.00;99661.69;108400;1252;61119;-69
2024/02/11 06:46:08;;;;;;;;;;;;;;;2.41;100.00;99666.09;108422;1251;73389;-70
2024/02/11 06:48:35;;;;;;;;;;;;;;;2.42;100.00;99673.27;108360;1251;72689;-69
2024/02/11 06:51:02;;;;;;;;;;;;;;;2.44;100.00;99673.31;108354;1251;71295;-68
2024/02/11 06:53:29;;;;;;;;;;;;;;;2.48;100.00;99669.64;108319;1251;61168;-69
2024/02/11 06:55:56;;;;;;;;;;;;;;;2.50;100.00;99677.75;108246;1254;61086;-69
2024/02/11 06:58:23;;;;;;;;;;;;;;;2.52;100.00;99678.69;108390;1251;73771;-69
2024/02/11 07:00:50;;;;;;;;;;;;;;;2.54;100.00;99681.08;108359;1251;71227;-69
2024/02/11 07:03:17;;;;;;;;;;;;;;;2.55;100.00;99678.25;108412;1251;71426;-69
2024/02/11 07:05:46;;;;;;;;;;;;;;;2.58;100.00;99673.52;108316;1251;61249;-70
2024/02/11 07:08:13;;;;;;;;;;;;;;;2.60;100.00;99669.83;108331;1251;61128;-69
2024/02/11 07:10:40;;;;;;;;;;;;;;;2.64;100.00;99668.19;108414;1255;75183;-70
2024/02/11 07:13:08;;;;;;;;;;;;;;;2.67;100.00;99671.30;108353;1251;71585;-70
2024/02/11 07:15:35;;;;;;;;;;;;;;;2.69;100.00;99672.30;108459;1251;73560;-70
2024/02/11 07:18:02;;;;;;;;;;;;;;;2.70;100.00;99675.88;108371;1251;61744;-70
2024/02/11 07:20:29;;;;;;;;;;;;;;;2.74;100.00;99682.23;108402;1251;61265;-69
2024/02/11 07:22:56;;;;;;;;;;;;;;;2.75;100.00;99691.91;108348;1251;73180;-70
2024/02/11 07:25:23;;;;;;;;;;;;;;;2.77;100.00;99698.25;108383;1251;72605;-70
2024/02/11 07:27:50;;;;;;;;;;;;;;;2.80;100.00;99701.66;108499;1255;73189;-70
2024/02/11 07:30:17;;;;;;;;;;;;;;;2.74;100.00;99706.49;108305;1251;61882;-70
2024/02/11 07:32:45;;;;;;;;;;;;;;;2.86;100.00;99710.80;108264;1251;61115;-70
2024/02/11 07:35:12;;;;;;;;;;;;;;;2.92;100.00;99713.06;108397;1251;74596;-71
2024/02/11 07:37:39;;;;;;;;;;;;;;;2.97;100.00;99720.50;108382;1251;72840;-70
2024/02/11 07:40:09;;;;;;;;;;;;;;;3.04;100.00;99724.11;108415;1251;72497;-71
2024/02/11 07:42:37;;;;;;;;;;;;;;;3.10;100.00;99727.45;108340;1251;61234;-73
2024/02/11 07:45:04;;;;;;;;;;;;;;;3.16;100.00;99725.38;108307;1251;61113;-71
2024/02/11 07:47:33;;;;;;;;;;;;;;;3.17;100.00;99716.77;108370;1251;74649;-71
2024/02/11 07:50:01;;;;;;;;;;;;;;;3.19;100.00;99718.70;108369;1251;72192;-71
2024/02/11 07:52:28;;;;;;;;;;;;;;;3.23;100.00;99716.69;108461;1251;72950;-72
2024/02/11 07:54:55;;;;;;;;;;;;;;;3.27;100.00;99711.50;108358;1251;61175;-72
2024/02/11 07:57:25;;;;;;;;;;;;;;;3.28;100.00;99705.65;108305;1251;61198;-72
2024/02/11 07:59:52;;;;;;;;;;;;;;;3.27;100.00;99705.95;108400;1251;73209;-71
2024/02/11 08:02:19;;;;;;;;;;;;;;;3.28;100.00;99707.72;108288;1251;72702;-71
2024/02/11 08:04:46;;;;;;;;;;;;;;;3.35;100.00;99713.52;108337;1255;72382;-71
2024/02/11 08:07:13;;;;;;;;;;;;;;;3.45;100.00;99727.31;108376;1251;61244;-72
2024/02/11 08:09:40;;;;;;;;;;;;;;;3.60;100.00;99732.23;108342;1251;61125;-71
2024/02/11 08:12:08;;;;;;;;;;;;;;;3.66;100.00;99731.58;108343;1251;74677;-72
2024/02/11 08:14:38;;;;;;;;;;;;;;;3.66;100.00;99738.18;108385;1251;70451;-72
2024/02/11 08:17:05;;;;;;;;;;;;;;;3.71;100.00;99736.12;108337;1251;72580;-72
2024/02/11 08:19:32;;;;;;;;;;;;;;;3.76;100.00;99730.09;108367;1251;61194;-73
2024/02/11 08:21:59;;;;;;;;;;;;;;;3.77;100.00;99726.52;108458;1251;60976;-72
2024/02/11 08:24:26;;;;;;;;;;;;;;;3.79;100.00;99721.42;108352;1251;74374;-72
2024/02/11 08:26:53;;;;;;;;;;;;;;;3.77;100.00;99728.31;108373;1251;72501;-73
2024/02/11 08:29:20;;;;;;;;;;;;;;;3.78;100.00;99724.11;108358;1251;72678;-73
2024/02/11 08:31:48;;;;;;;;;;;;;;;3.81;100.00;99724.27;108339;1251;61304;-71
2024/02/11 08:34:15;;;;;;;;;;;;;;;3.83;100.00;99726.60;108419;1251;61051;-71
2024/02/11 08:36:43;;;;;;;;;;;;;;;3.82;100.00;99727.45;108330;1251;73500;-72
2024/02/11 08:39:10;;;;;;;;;;;;;;;3.81;100.00;99724.59;108341;1251;72555;-73
2024/02/11 08:41:37;;;;;;;;;;;;;;;3.83;100.00;99718.98;108358;1251;72496;-72
2024/02/11 08:44:05;;;;;;;;;;;;;;;3.83;100.00;99725.16;108345;1251;61227;-72
2024/02/11 08:46:36;;;;;;;;;;;;;;;3.88;100.00;99722.90;108463;1251;61266;-71
2024/02/11 08:49:03;;;;;;;;;;;;;;;3.90;100.00;99722.77;108457;1251;74396;-70
2024/02/11 08:51:31;;;;;;;;;;;;;;;3.87;100.00;99724.67;108379;1251;72688;-71
2024/02/11 08:53:57;;;;;;;;;;;;;;;3.89;100.00;99726.88;108349;1251;73839;-71
2024/02/11 08:56:25;;;;;;;;;;;;;;;3.92;100.00;99726.33;108351;1251;61247;-71
2024/02/11 08:58:53;;;;;;;;;;;;;;;3.96;100.00;99719.89;108361;1251;61251;-70
2024/02/11 09:01:19;;;;;;;;;;;;;;;4.00;100.00;99727.94;108389;1251;74342;-72
2024/02/11 09:03:46;;;;;;;;;;;;;;;4.03;100.00;99726.94;108359;1251;73305;-72
2024/02/11 09:06:13;;;;;;;;;;;;;;;4.05;100.00;99730.90;108316;1251;72441;-71
2024/02/11 09:08:40;;;;;;;;;;;;;;;4.10;100.00;99730.52;108361;1251;62195;-71
2024/02/11 09:11:13;;;;;;;;;;;;;;;4.15;100.00;99732.41;108342;1255;61192;-72
2024/02/11 09:13:40;;;;;;;;;;;;;;;4.21;100.00;99735.92;108375;1255;74636;-72
2024/02/11 09:16:10;;;;;;;;;;;;;;;4.29;100.00;99729.40;108588;1251;72715;-71
2024/02/11 09:18:37;;;;;;;;;;;;;;;4.35;100.00;99720.41;108337;1251;73060;-72
2024/02/11 09:21:04;;;;;;;;;;;;;;;4.34;100.00;99722.20;108382;1251;61112;-72
2024/02/11 09:23:31;;;;;;;;;;;;;;;4.34;100.00;99724.31;108267;1256;61073;-73
2024/02/11 09:25:59;;;;;;;;;;;;;;;4.38;100.00;99717.94;108244;1251;74655;-71
2024/02/11 09:28:26;;;;;;;;;;;;;;;4.41;100.00;99720.69;108336;1251;72619;-72
2024/02/11 09:30:53;;;;;;;;;;;;;;;4.42;100.00;99717.86;108312;1255;72455;-72
2024/02/11 09:33:20;;;;;;;;;;;;;;;4.43;100.00;99718.24;108376;1251;61213;-73
2024/02/11 09:35:47;;;;;;;;;;;;;;;4.45;100.00;99715.95;108382;1251;61140;-73
2024/02/11 09:38:15;;;;;;;;;;;;;;;4.45;100.00;99709.08;108378;1251;74516;-72
2024/02/11 09:40:44;;;;;;;;;;;;;;;4.48;100.00;99705.15;108352;1255;71302;-71
2024/02/11 09:43:11;;;;;;;;;;;;;;;4.57;100.00;99702.40;108380;1251;72848;-71
2024/02/11 09:45:38;;;;;;;;;;;;;;;4.66;100.00;99702.92;108323;1251;61125;-71
2024/02/11 09:48:05;;;;;;;;;;;;;;;4.73;100.00;99704.67;108363;1251;61083;-71
2024/02/11 09:50:34;;;;;;;;;;;;;;;4.70;100.00;99711.30;108409;1251;74870;-71
2024/02/11 09:53:01;;;;;;;;;;;;;;;4.88;100.00;99713.55;104320;1254;5130390;-72
2024/02/11 09:55:28;;;;;;;;;;;;;;;5.00;100.00;99718.78;108375;1251;61261;-71
2024/02/11 09:57:55;;;;;;;;;;;;;;;5.10;100.00;99714.61;108340;1251;61243;-71
2024/02/11 10:00:23;;;;;;;;;;;;;;;5.09;100.00;99713.31;108418;1251;61219;-71
2024/02/11 10:02:50;;;;;;;;;;;;;;;5.05;100.00;99711.08;108555;1251;73823;-71
2024/02/11 10:05:17;;;;;;;;;;;;;;;5.03;100.00;99704.31;108407;1251;71417;-71
2024/02/11 10:07:44;;;;;;;;;;;;;;;5.01;100.00;99699.26;108464;1251;70722;-72
2024/02/11 10:10:13;;;;;;;;;;;;;;;4.95;100.00;99692.30;108397;1251;61132;-70
2024/02/11 10:12:43;;;;;;;;;;;;;;;4.91;100.00;99679.70;108369;1251;61074;-72
2024/02/11 10:15:11;;;;;;;;;;;;;;;4.87;100.00;99670.00;108439;1251;74490;-71
2024/02/11 10:17:38;;;;;;;;;;;;;;;4.85;100.00;99672.23;108527;1251;71394;-71
2024/02/11 10:20:05;;;;;;;;;;;;;;;4.84;100.00;99670.38;108325;1251;72709;-71
2024/02/11 10:22:32;;;;;;;;;;;;;;;4.83;100.00;99666.65;108344;1251;61460;-71
2024/02/11 10:24:59;;;;;;;;;;;;;;;4.82;100.00;99665.58;108488;1251;59477;-70
2024/02/11 10:27:26;;;;;;;;;;;;;;;4.79;100.00;99671.28;108269;1251;73222;-70
2024/02/11 10:29:53;;;;;;;;;;;;;;;4.77;100.00;99672.64;108309;1251;73339;-71
2024/02/11 10:32:19;;;;;;;;;;;;;;;4.76;100.00;99667.07;108359;1251;72626;-70
2024/02/11 10:34:46;;;;;;;;;;;;;;;4.79;100.00;99664.46;108341;1251;61112;-71
2024/02/11 10:37:15;;;;;;;;;;;;;;;4.77;100.00;99656.30;108357;1251;61228;-72
2024/02/11 10:39:41;;;;;;;;;;;;;;;4.75;100.00;99645.90;108393;1251;73636;-71
2024/02/11 10:42:08;;;;;;;;;;;;;;;4.73;100.00;99645.05;108360;1251;72615;-71
2024/02/11 10:44:38;;;;;;;;;;;;;;;4.68;100.00;99649.05;108335;1251;72350;-71
2024/02/11 10:47:08;;;;;;;;;;;;;;;4.62;100.00;99650.64;108325;1251;60872;-70
2024/02/11 10:49:36;;;;;;;;;;;;;;;4.58;100.00;99643.55;108439;1256;60403;-70
2024/02/11 10:52:07;;;;;;;;;;;;;;;4.57;100.00;99646.45;108300;1252;73154;-71
2024/02/11 10:54:39;;;;;;;;;;;;;;;4.57;100.00;99645.79;108417;1251;72714;-71
2024/02/11 10:57:12;;;;;;;;;;;;;;;4.55;100.00;99651.39;108250;1253;73280;-70
2024/02/11 10:59:59;;;;;;;;;;;;;;;4.53;100.00;99651.31;108334;1251;61252;-71
2024/02/11 11:02:27;;;;;;;;;;;;;;;4.48;100.00;99644.29;108375;1256;59864;-69
2024/02/11 11:04:57;;;;;;;;;;;;;;;4.44;100.00;99649.92;108247;1251;72393;-68
2024/02/11 11:07:24;;;;;;;;;;;;;;;4.42;100.00;99653.06;108300;1251;72520;-67
2024/02/11 11:09:52;;;;;;;;;;;;;;;4.40;100.00;99656.75;108769;1251;72594;-69
2024/02/11 11:12:19;;;;;;;;;;;;;;;4.40;100.00;99657.00;108205;1251;61122;-69
2024/02/11 11:14:48;;;;;;;;;;;;;;;4.37;100.00;99651.71;108762;1251;60078;-68
2024/02/11 11:17:19;;;;;;;;;;;;;;;4.34;100.00;99651.40;108251;1251;73262;-69
2024/02/11 11:19:47;;;;;;;;;;;;;;;4.32;100.00;99645.92;108341;1251;72779;-69
2024/02/11 11:22:15;;;;;;;;;;;;;;;4.29;100.00;99651.05;108114;1251;71917;-71
2024/02/11 11:24:43;;;;;;;;;;;;;;;4.25;100.00;99648.92;108150;1251;61278;-71
2024/02/11 11:27:10;;;;;;;;;;;;;;;4.18;100.00;99644.67;108267;1251;61001;-69
2024/02/11 11:29:37;;;;;;;;;;;;;;;4.13;100.00;99648.81;108304;1252;74655;-69
2024/02/11 11:32:09;;;;;;;;;;;;;;;4.08;100.00;99650.19;108328;1251;72643;-68
2024/02/11 11:34:36;;;;;;;;;;;;;;;4.03;100.00;99654.27;108411;1251;72470;-68
2024/02/11 11:37:10;;;;;;;;;;;;;;;4.00;100.00;99651.26;108234;1251;61172;-68
2024/02/11 11:39:37;;;;;;;;;;;;;;;3.93;100.00;99648.27;108338;1255;59637;-68
2024/02/11 11:42:05;;;;;;;;;;;;;;;3.91;100.00;99654.68;108577;1251;73575;-69
2024/02/11 11:44:32;;;;;;;;;;;;;;;3.91;100.00;99663.34;108453;1251;72512;-68
2024/02/11 11:46:59;;;;;;;;;;;;;;;3.90;100.00;99654.09;108443;1251;73761;-68
2024/02/11 11:49:27;;;;;;;;;;;;;;;3.89;100.00;99654.08;108399;1251;61620;-70
2024/02/11 11:51:58;;;;;;;;;;;;;;;3.90;100.00;99650.91;108261;1251;61204;-68
2024/02/11 11:54:26;;;;;;;;;;;;;;;3.90;100.00;99646.47;108653;1251;75034;-68
2024/02/11 11:56:56;;;;;;;;;;;;;;;3.87;100.00;99642.23;108590;1251;71400;-69
2024/02/11 11:59:24;;;;;;;;;;;;;;;3.88;100.00;99649.19;108267;1253;71145;-68
2024/02/11 12:01:52;;;;;;;;;;;;;;;3.89;100.00;99644.55;108552;1254;60211;-70
2024/02/11 12:04:19;;;;;;;;;;;;;;;3.90;100.00;99639.14;108379;1251;61086;-68
2024/02/11 12:06:47;;;;;;;;;;;;;;;3.90;100.00;99639.63;108444;1251;74585;-69
2024/02/11 12:09:14;;;;;;;;;;;;;;;3.91;100.00;99633.08;108488;1251;72892;-70
2024/02/11 12:11:41;;;;;;;;;;;;;;;3.88;100.00;99635.93;108368;1251;72362;-70
2024/02/11 12:14:09;;;;;;;;;;;;;;;3.86;100.00;99631.67;108332;1253;61964;-68
2024/02/11 12:16:36;;;;;;;;;;;;;;;3.86;100.00;99629.18;108482;1252;61109;-69
2024/02/11 12:19:04;;;;;;;;;;;;;;;3.87;100.00;99628.92;108377;1253;75246;-68
2024/02/11 12:21:34;;;;;;;;;;;;;;;3.85;100.00;99625.68;108376;1251;71625;-69
2024/02/11 12:24:04;;;;;;;;;;;;;;;3.82;100.00;99623.27;108384;1251;72043;-69
2024/02/11 12:26:32;;;;;;;;;;;;;;;3.79;100.00;99624.83;108276;1252;61105;-69
2024/02/11 12:28:59;;;;;;;;;;;;;;;3.79;100.00;99624.87;108342;1251;61005;-69
2024/02/11 12:31:27;;;;;;;;;;;;;;;3.78;100.00;99621.95;108437;1251;73609;-70
2024/02/11 12:33:54;;;;;;;;;;;;;;;3.76;100.00;99623.06;108406;1251;71617;-69
2024/02/11 12:36:23;;;;;;;;;;;;;;;3.76;100.00;99623.34;108455;1251;72906;-69
2024/02/11 12:38:50;;;;;;;;;;;;;;;3.76;100.00;99618.98;108586;1255;61034;-70